sensor_id;sensor_type;location;lat;lon;timestamp;P1;durP1;ratioP1;P2;durP2;ratioP2
13704;SDS011;6924;52.122;9.952;2023-06-10T00:00:08;3.00;;;1.70;;
13704;SDS011;6924;52.122;9.952;2023-06-10T00:02:37;1.50;;;1.40;;
13704;SDS011;6924;52.122;9.952;2023-06-10T00:05:04;2.07;;;1.53;;
13704;SDS011;6924;52.122;9.952;2023-06-10T00:07:32;2.43;;;1.43;;
13704;SDS011;6924;52.122;9.952;2023-06-10T00:09:59;2.00;;;1.80;;
13704;SDS011;6924;52.122;9.952;2023-06-10T00:12:29;1.50;;;1.40;;
13704;SDS011;6924;52.122;9.952;2023-06-10T00:14:56;2.63;;;1.70;;
13704;SDS011;6924;52.122;9.952;2023-06-10T00:17:22;2.10;;;1.77;;
13704;SDS011;6924;52.122;9.952;2023-06-10T00:19:50;2.27;;;1.60;;
13704;SDS011;6924;52.122;9.952;2023-06-10T00:22:18;2.00;;;1.87;;
13704;SDS011;6924;52.122;9.952;2023-06-10T00:24:45;3.20;;;1.60;;
13704;SDS011;6924;52.122;9.952;2023-06-10T00:27:12;5.43;;;1.90;;
13704;SDS011;6924;52.122;9.952;2023-06-10T00:29:39;1.77;;;1.67;;
13704;SDS011;6924;52.122;9.952;2023-06-10T00:32:05;2.40;;;1.70;;
13704;SDS011;6924;52.122;9.952;2023-06-10T00:34:32;2.67;;;1.90;;
13704;SDS011;6924;52.122;9.952;2023-06-10T00:36:58;1.63;;;1.50;;
13704;SDS011;6924;52.122;9.952;2023-06-10T00:39:25;1.50;;;1.33;;
13704;SDS011;6924;52.122;9.952;2023-06-10T00:41:53;1.83;;;1.67;;
13704;SDS011;6924;52.122;9.952;2023-06-10T00:44:19;1.80;;;1.70;;
13704;SDS011;6924;52.122;9.952;2023-06-10T00:46:46;1.80;;;1.70;;
13704;SDS011;6924;52.122;9.952;2023-06-10T00:49:12;2.27;;;1.80;;
13704;SDS011;6924;52.122;9.952;2023-06-10T00:51:39;4.00;;;2.20;;
13704;SDS011;6924;52.122;9.952;2023-06-10T00:54:05;2.10;;;1.70;;
13704;SDS011;6924;52.122;9.952;2023-06-10T00:56:33;2.30;;;2.10;;
13704;SDS011;6924;52.122;9.952;2023-06-10T00:59:01;3.27;;;2.20;;
13704;SDS011;6924;52.122;9.952;2023-06-10T01:01:28;2.80;;;2.33;;
13704;SDS011;6924;52.122;9.952;2023-06-10T01:03:55;2.87;;;2.00;;
13704;SDS011;6924;52.122;9.952;2023-06-10T01:06:24;2.00;;;1.83;;
13704;SDS011;6924;52.122;9.952;2023-06-10T01:09:02;2.20;;;1.97;;
13704;SDS011;6924;52.122;9.952;2023-06-10T01:11:37;4.37;;;1.63;;
13704;SDS011;6924;52.122;9.952;2023-06-10T01:14:11;2.27;;;2.07;;
13704;SDS011;6924;52.122;9.952;2023-06-10T01:16:39;2.17;;;1.80;;
13704;SDS011;6924;52.122;9.952;2023-06-10T01:19:06;2.03;;;1.90;;
13704;SDS011;6924;52.122;9.952;2023-06-10T01:21:34;2.37;;;1.97;;
13704;SDS011;6924;52.122;9.952;2023-06-10T01:24:00;2.17;;;1.97;;
13704;SDS011;6924;52.122;9.952;2023-06-10T01:26:28;2.33;;;1.90;;
13704;SDS011;6924;52.122;9.952;2023-06-10T01:28:58;3.13;;;2.20;;
13704;SDS011;6924;52.122;9.952;2023-06-10T01:31:31;1.53;;;1.43;;
13704;SDS011;6924;52.122;9.952;2023-06-10T01:34:05;2.57;;;1.97;;
13704;SDS011;6924;52.122;9.952;2023-06-10T01:36:37;3.43;;;1.70;;
13704;SDS011;6924;52.122;9.952;2023-06-10T01:39:04;1.97;;;1.60;;
13704;SDS011;6924;52.122;9.952;2023-06-10T01:41:31;3.00;;;1.63;;
13704;SDS011;6924;52.122;9.952;2023-06-10T01:43:58;2.93;;;2.00;;
13704;SDS011;6924;52.122;9.952;2023-06-10T01:46:25;2.77;;;2.03;;
13704;SDS011;6924;52.122;9.952;2023-06-10T01:48:51;2.70;;;1.80;;
13704;SDS011;6924;52.122;9.952;2023-06-10T01:51:18;2.53;;;1.73;;
13704;SDS011;6924;52.122;9.952;2023-06-10T01:53:46;3.60;;;1.87;;
13704;SDS011;6924;52.122;9.952;2023-06-10T01:56:12;3.13;;;1.63;;
13704;SDS011;6924;52.122;9.952;2023-06-10T01:58:42;1.83;;;1.73;;
13704;SDS011;6924;52.122;9.952;2023-06-10T02:01:09;3.57;;;1.70;;
13704;SDS011;6924;52.122;9.952;2023-06-10T02:03:36;3.23;;;1.60;;
13704;SDS011;6924;52.122;9.952;2023-06-10T02:06:02;3.23;;;2.10;;
13704;SDS011;6924;52.122;9.952;2023-06-10T02:08:29;2.67;;;1.83;;
13704;SDS011;6924;52.122;9.952;2023-06-10T02:10:57;3.70;;;2.93;;
13704;SDS011;6924;52.122;9.952;2023-06-10T02:13:23;1.90;;;1.80;;
13704;SDS011;6924;52.122;9.952;2023-06-10T02:15:50;1.90;;;1.67;;
13704;SDS011;6924;52.122;9.952;2023-06-10T02:18:18;3.07;;;1.73;;
13704;SDS011;6924;52.122;9.952;2023-06-10T02:20:45;2.43;;;1.93;;
13704;SDS011;6924;52.122;9.952;2023-06-10T02:23:12;2.53;;;1.73;;
13704;SDS011;6924;52.122;9.952;2023-06-10T02:25:38;2.53;;;1.70;;
13704;SDS011;6924;52.122;9.952;2023-06-10T02:28:06;1.93;;;1.83;;
13704;SDS011;6924;52.122;9.952;2023-06-10T02:30:32;3.97;;;2.00;;
13704;SDS011;6924;52.122;9.952;2023-06-10T02:32:59;2.13;;;1.77;;
13704;SDS011;6924;52.122;9.952;2023-06-10T02:35:26;2.77;;;2.40;;
13704;SDS011;6924;52.122;9.952;2023-06-10T02:37:52;1.70;;;1.47;;
13704;SDS011;6924;52.122;9.952;2023-06-10T02:40:18;2.60;;;1.90;;
13704;SDS011;6924;52.122;9.952;2023-06-10T02:42:45;2.37;;;1.80;;
13704;SDS011;6924;52.122;9.952;2023-06-10T02:45:13;3.67;;;2.40;;
13704;SDS011;6924;52.122;9.952;2023-06-10T02:47:39;5.43;;;1.90;;
13704;SDS011;6924;52.122;9.952;2023-06-10T02:50:06;2.80;;;2.43;;
13704;SDS011;6924;52.122;9.952;2023-06-10T02:52:32;2.30;;;1.90;;
13704;SDS011;6924;52.122;9.952;2023-06-10T02:54:59;2.90;;;1.77;;
13704;SDS011;6924;52.122;9.952;2023-06-10T02:57:25;3.50;;;2.27;;
13704;SDS011;6924;52.122;9.952;2023-06-10T02:59:52;1.90;;;1.80;;
13704;SDS011;6924;52.122;9.952;2023-06-10T03:02:20;2.90;;;2.23;;
13704;SDS011;6924;52.122;9.952;2023-06-10T03:04:47;1.87;;;1.63;;
13704;SDS011;6924;52.122;9.952;2023-06-10T03:07:15;4.33;;;1.80;;
13704;SDS011;6924;52.122;9.952;2023-06-10T03:09:43;2.20;;;2.00;;
13704;SDS011;6924;52.122;9.952;2023-06-10T03:12:09;4.07;;;2.27;;
13704;SDS011;6924;52.122;9.952;2023-06-10T03:14:36;2.63;;;2.43;;
13704;SDS011;6924;52.122;9.952;2023-06-10T03:17:04;3.80;;;2.70;;
13704;SDS011;6924;52.122;9.952;2023-06-10T03:19:32;2.40;;;2.20;;
13704;SDS011;6924;52.122;9.952;2023-06-10T03:22:06;2.10;;;1.90;;
13704;SDS011;6924;52.122;9.952;2023-06-10T03:24:34;4.83;;;2.40;;
13704;SDS011;6924;52.122;9.952;2023-06-10T03:27:05;4.53;;;2.60;;
13704;SDS011;6924;52.122;9.952;2023-06-10T03:29:32;2.30;;;2.10;;
13704;SDS011;6924;52.122;9.952;2023-06-10T03:31:59;2.83;;;2.07;;
13704;SDS011;6924;52.122;9.952;2023-06-10T03:34:25;4.40;;;2.07;;
13704;SDS011;6924;52.122;9.952;2023-06-10T03:36:53;2.70;;;2.33;;
13704;SDS011;6924;52.122;9.952;2023-06-10T03:39:19;2.40;;;2.10;;
13704;SDS011;6924;52.122;9.952;2023-06-10T03:41:46;2.97;;;2.13;;
13704;SDS011;6924;52.122;9.952;2023-06-10T03:44:12;2.77;;;2.43;;
13704;SDS011;6924;52.122;9.952;2023-06-10T03:46:38;2.73;;;2.50;;
13704;SDS011;6924;52.122;9.952;2023-06-10T03:49:05;4.50;;;2.33;;
13704;SDS011;6924;52.122;9.952;2023-06-10T03:51:31;3.57;;;2.33;;
13704;SDS011;6924;52.122;9.952;2023-06-10T03:53:59;2.97;;;2.67;;
13704;SDS011;6924;52.122;9.952;2023-06-10T03:56:25;4.47;;;2.50;;
13704;SDS011;6924;52.122;9.952;2023-06-10T03:58:53;3.40;;;2.63;;
13704;SDS011;6924;52.122;9.952;2023-06-10T04:01:20;2.63;;;2.30;;
13704;SDS011;6924;52.122;9.952;2023-06-10T04:03:48;2.67;;;2.47;;
13704;SDS011;6924;52.122;9.952;2023-06-10T04:06:16;2.93;;;2.40;;
13704;SDS011;6924;52.122;9.952;2023-06-10T04:08:43;3.43;;;2.40;;
13704;SDS011;6924;52.122;9.952;2023-06-10T04:11:11;3.43;;;3.13;;
13704;SDS011;6924;52.122;9.952;2023-06-10T04:13:37;3.63;;;2.30;;
13704;SDS011;6924;52.122;9.952;2023-06-10T04:16:04;4.13;;;2.93;;
13704;SDS011;6924;52.122;9.952;2023-06-10T04:18:31;4.07;;;3.03;;
13704;SDS011;6924;52.122;9.952;2023-06-10T04:20:57;4.13;;;3.40;;
13704;SDS011;6924;52.122;9.952;2023-06-10T04:23:23;5.07;;;2.60;;
13704;SDS011;6924;52.122;9.952;2023-06-10T04:25:51;3.20;;;2.70;;
13704;SDS011;6924;52.122;9.952;2023-06-10T04:28:18;3.63;;;2.60;;
13704;SDS011;6924;52.122;9.952;2023-06-10T04:30:45;2.80;;;2.57;;
13704;SDS011;6924;52.122;9.952;2023-06-10T04:33:11;3.03;;;2.73;;
13704;SDS011;6924;52.122;9.952;2023-06-10T04:35:38;3.63;;;3.00;;
13704;SDS011;6924;52.122;9.952;2023-06-10T04:38:04;2.80;;;2.53;;
13704;SDS011;6924;52.122;9.952;2023-06-10T04:40:30;5.40;;;3.10;;
13704;SDS011;6924;52.122;9.952;2023-06-10T04:42:57;2.87;;;2.67;;
13704;SDS011;6924;52.122;9.952;2023-06-10T04:45:25;3.73;;;2.97;;
13704;SDS011;6924;52.122;9.952;2023-06-10T04:47:51;3.33;;;2.63;;
13704;SDS011;6924;52.122;9.952;2023-06-10T04:50:20;4.47;;;3.40;;
13704;SDS011;6924;52.122;9.952;2023-06-10T04:52:47;5.50;;;3.00;;
13704;SDS011;6924;52.122;9.952;2023-06-10T04:55:13;5.03;;;2.97;;
13704;SDS011;6924;52.122;9.952;2023-06-10T04:57:40;3.73;;;2.50;;
13704;SDS011;6924;52.122;9.952;2023-06-10T05:00:06;4.90;;;3.60;;
13704;SDS011;6924;52.122;9.952;2023-06-10T05:02:35;3.40;;;3.10;;
13704;SDS011;6924;52.122;9.952;2023-06-10T05:05:01;4.37;;;2.97;;
13704;SDS011;6924;52.122;9.952;2023-06-10T05:07:27;4.30;;;2.87;;
13704;SDS011;6924;52.122;9.952;2023-06-10T05:09:54;3.93;;;2.80;;
13704;SDS011;6924;52.122;9.952;2023-06-10T05:12:20;5.73;;;4.37;;
13704;SDS011;6924;52.122;9.952;2023-06-10T05:14:47;5.47;;;3.43;;
13704;SDS011;6924;52.122;9.952;2023-06-10T05:17:14;4.50;;;3.47;;
13704;SDS011;6924;52.122;9.952;2023-06-10T05:19:41;4.50;;;3.93;;
13704;SDS011;6924;52.122;9.952;2023-06-10T05:22:08;4.93;;;3.70;;
13704;SDS011;6924;52.122;9.952;2023-06-10T05:24:35;3.60;;;3.30;;
13704;SDS011;6924;52.122;9.952;2023-06-10T05:27:01;4.70;;;3.60;;
13704;SDS011;6924;52.122;9.952;2023-06-10T05:29:28;5.20;;;3.20;;
13704;SDS011;6924;52.122;9.952;2023-06-10T05:31:55;6.10;;;3.90;;
13704;SDS011;6924;52.122;9.952;2023-06-10T05:34:22;3.73;;;3.43;;
13704;SDS011;6924;52.122;9.952;2023-06-10T05:36:50;3.50;;;3.20;;
13704;SDS011;6924;52.122;9.952;2023-06-10T05:39:16;6.10;;;4.63;;
13704;SDS011;6924;52.122;9.952;2023-06-10T05:41:43;6.00;;;5.43;;
13704;SDS011;6924;52.122;9.952;2023-06-10T05:44:09;5.63;;;5.10;;
13704;SDS011;6924;52.122;9.952;2023-06-10T05:46:36;7.90;;;5.83;;
13704;SDS011;6924;52.122;9.952;2023-06-10T05:49:02;6.63;;;5.33;;
13704;SDS011;6924;52.122;9.952;2023-06-10T05:51:28;8.10;;;6.73;;
13704;SDS011;6924;52.122;9.952;2023-06-10T05:53:56;7.90;;;7.10;;
13704;SDS011;6924;52.122;9.952;2023-06-10T05:56:23;8.60;;;7.80;;
13704;SDS011;6924;52.122;9.952;2023-06-10T05:58:50;9.27;;;8.13;;
13704;SDS011;6924;52.122;9.952;2023-06-10T06:01:17;8.67;;;7.93;;
13704;SDS011;6924;52.122;9.952;2023-06-10T06:03:43;9.00;;;8.10;;
13704;SDS011;6924;52.122;9.952;2023-06-10T06:06:10;8.33;;;7.53;;
13704;SDS011;6924;52.122;9.952;2023-06-10T06:08:36;8.40;;;7.60;;
13704;SDS011;6924;52.122;9.952;2023-06-10T06:11:04;9.40;;;8.43;;
13704;SDS011;6924;52.122;9.952;2023-06-10T06:13:30;10.63;;;8.67;;
13704;SDS011;6924;52.122;9.952;2023-06-10T06:15:57;10.80;;;9.90;;
13704;SDS011;6924;52.122;9.952;2023-06-10T06:18:23;10.97;;;9.77;;
13704;SDS011;6924;52.122;9.952;2023-06-10T06:20:49;10.80;;;9.80;;
13704;SDS011;6924;52.122;9.952;2023-06-10T06:23:16;10.60;;;9.60;;
13704;SDS011;6924;52.122;9.952;2023-06-10T06:25:42;11.87;;;10.67;;
13704;SDS011;6924;52.122;9.952;2023-06-10T06:28:10;14.23;;;12.73;;
13704;SDS011;6924;52.122;9.952;2023-06-10T06:30:36;15.13;;;11.60;;
13704;SDS011;6924;52.122;9.952;2023-06-10T06:33:03;13.73;;;12.37;;
13704;SDS011;6924;52.122;9.952;2023-06-10T06:35:30;16.07;;;12.23;;
13704;SDS011;6924;52.122;9.952;2023-06-10T06:37:57;13.87;;;12.47;;
13704;SDS011;6924;52.122;9.952;2023-06-10T06:40:29;13.40;;;12.30;;
13704;SDS011;6924;52.122;9.952;2023-06-10T06:42:55;14.87;;;13.17;;
13704;SDS011;6924;52.122;9.952;2023-06-10T06:45:23;13.77;;;12.37;;
13704;SDS011;6924;52.122;9.952;2023-06-10T06:47:49;12.90;;;11.60;;
13704;SDS011;6924;52.122;9.952;2023-06-10T06:50:16;14.60;;;13.37;;
13704;SDS011;6924;52.122;9.952;2023-06-10T06:52:43;16.07;;;12.63;;
13704;SDS011;6924;52.122;9.952;2023-06-10T06:55:19;14.33;;;12.90;;
13704;SDS011;6924;52.122;9.952;2023-06-10T06:57:45;15.50;;;13.93;;
13704;SDS011;6924;52.122;9.952;2023-06-10T07:00:12;15.07;;;13.60;;
13704;SDS011;6924;52.122;9.952;2023-06-10T07:02:49;13.90;;;12.80;;
13704;SDS011;6924;52.122;9.952;2023-06-10T07:05:40;14.30;;;12.90;;
13704;SDS011;6924;52.122;9.952;2023-06-10T07:08:07;13.63;;;12.03;;
13704;SDS011;6924;52.122;9.952;2023-06-10T07:10:33;15.00;;;13.57;;
13704;SDS011;6924;52.122;9.952;2023-06-10T07:13:00;13.17;;;12.07;;
13704;SDS011;6924;52.122;9.952;2023-06-10T07:15:26;13.67;;;11.13;;
13704;SDS011;6924;52.122;9.952;2023-06-10T07:17:54;13.43;;;12.13;;
13704;SDS011;6924;52.122;9.952;2023-06-10T07:20:21;12.67;;;11.50;;
13704;SDS011;6924;52.122;9.952;2023-06-10T07:22:47;14.03;;;12.63;;
13704;SDS011;6924;52.122;9.952;2023-06-10T07:25:14;12.77;;;11.57;;
13704;SDS011;6924;52.122;9.952;2023-06-10T07:27:40;12.30;;;11.20;;
13704;SDS011;6924;52.122;9.952;2023-06-10T07:30:07;11.73;;;10.63;;
13704;SDS011;6924;52.122;9.952;2023-06-10T07:32:34;11.23;;;10.33;;
13704;SDS011;6924;52.122;9.952;2023-06-10T07:35:02;9.73;;;8.93;;
13704;SDS011;6924;52.122;9.952;2023-06-10T07:37:28;11.17;;;10.17;;
13704;SDS011;6924;52.122;9.952;2023-06-10T07:39:55;10.17;;;7.93;;
13704;SDS011;6924;52.122;9.952;2023-06-10T07:42:22;8.23;;;7.43;;
13704;SDS011;6924;52.122;9.952;2023-06-10T07:44:49;8.50;;;6.70;;
13704;SDS011;6924;52.122;9.952;2023-06-10T07:47:15;6.30;;;5.67;;
13704;SDS011;6924;52.122;9.952;2023-06-10T07:49:41;6.10;;;5.57;;
13704;SDS011;6924;52.122;9.952;2023-06-10T07:52:09;6.30;;;5.70;;
13704;SDS011;6924;52.122;9.952;2023-06-10T07:54:35;6.80;;;6.07;;
13704;SDS011;6924;52.122;9.952;2023-06-10T07:57:02;5.80;;;4.93;;
13704;SDS011;6924;52.122;9.952;2023-06-10T07:59:28;5.50;;;4.70;;
13704;SDS011;6924;52.122;9.952;2023-06-10T08:01:55;5.47;;;4.97;;
13704;SDS011;6924;52.122;9.952;2023-06-10T08:04:21;4.37;;;3.97;;
13704;SDS011;6924;52.122;9.952;2023-06-10T08:06:48;4.47;;;4.07;;
13704;SDS011;6924;52.122;9.952;2023-06-10T08:09:15;4.73;;;4.33;;
13704;SDS011;6924;52.122;9.952;2023-06-10T08:11:43;4.53;;;4.13;;
13704;SDS011;6924;52.122;9.952;2023-06-10T08:14:09;3.93;;;3.63;;
13704;SDS011;6924;52.122;9.952;2023-06-10T08:16:36;3.33;;;3.13;;
13704;SDS011;6924;52.122;9.952;2023-06-10T08:19:02;6.33;;;3.73;;
13704;SDS011;6924;52.122;9.952;2023-06-10T08:21:29;4.80;;;4.43;;
13704;SDS011;6924;52.122;9.952;2023-06-10T08:23:55;5.47;;;4.80;;
13704;SDS011;6924;52.122;9.952;2023-06-10T08:26:23;3.47;;;3.23;;
13704;SDS011;6924;52.122;9.952;2023-06-10T08:28:49;5.20;;;4.07;;
13704;SDS011;6924;52.122;9.952;2023-06-10T08:31:16;5.50;;;3.80;;
13704;SDS011;6924;52.122;9.952;2023-06-10T08:33:42;3.60;;;3.30;;
13704;SDS011;6924;52.122;9.952;2023-06-10T08:36:08;4.07;;;3.27;;
13704;SDS011;6924;52.122;9.952;2023-06-10T08:38:35;8.80;;;4.37;;
13704;SDS011;6924;52.122;9.952;2023-06-10T08:41:01;3.70;;;3.40;;
13704;SDS011;6924;52.122;9.952;2023-06-10T08:43:33;3.63;;;3.27;;
13704;SDS011;6924;52.122;9.952;2023-06-10T08:46:08;3.77;;;2.93;;
13704;SDS011;6924;52.122;9.952;2023-06-10T08:48:35;3.10;;;2.73;;
13704;SDS011;6924;52.122;9.952;2023-06-10T08:51:09;4.33;;;3.93;;
13704;SDS011;6924;52.122;9.952;2023-06-10T08:53:37;4.13;;;3.50;;
13704;SDS011;6924;52.122;9.952;2023-06-10T08:56:09;3.57;;;3.27;;
13704;SDS011;6924;52.122;9.952;2023-06-10T08:58:38;4.83;;;3.20;;
13704;SDS011;6924;52.122;9.952;2023-06-10T09:01:06;4.10;;;3.70;;
13704;SDS011;6924;52.122;9.952;2023-06-10T09:03:33;3.83;;;3.50;;
13704;SDS011;6924;52.122;9.952;2023-06-10T09:06:02;4.33;;;3.20;;
13704;SDS011;6924;52.122;9.952;2023-06-10T09:08:31;3.73;;;3.43;;
13704;SDS011;6924;52.122;9.952;2023-06-10T09:10:59;4.30;;;3.47;;
13704;SDS011;6924;52.122;9.952;2023-06-10T09:13:25;3.40;;;3.10;;
13704;SDS011;6924;52.122;9.952;2023-06-10T09:15:53;3.83;;;3.00;;
13704;SDS011;6924;52.122;9.952;2023-06-10T09:18:21;3.87;;;3.53;;
13704;SDS011;6924;52.122;9.952;2023-06-10T09:20:48;3.97;;;3.53;;
13704;SDS011;6924;52.122;9.952;2023-06-10T09:23:15;4.73;;;3.37;;
13704;SDS011;6924;52.122;9.952;2023-06-10T09:25:42;3.13;;;2.87;;
13704;SDS011;6924;52.122;9.952;2023-06-10T09:28:12;3.70;;;3.40;;
13704;SDS011;6924;52.122;9.952;2023-06-10T09:30:39;4.30;;;2.80;;
13704;SDS011;6924;52.122;9.952;2023-06-10T09:33:10;5.23;;;4.10;;
13704;SDS011;6924;52.122;9.952;2023-06-10T09:35:44;3.33;;;3.03;;
13704;SDS011;6924;52.122;9.952;2023-06-10T09:38:11;4.30;;;3.20;;
13704;SDS011;6924;52.122;9.952;2023-06-10T09:40:47;3.17;;;2.87;;
13704;SDS011;6924;52.122;9.952;2023-06-10T09:43:15;3.70;;;2.90;;
13704;SDS011;6924;52.122;9.952;2023-06-10T09:45:41;3.87;;;3.57;;
13704;SDS011;6924;52.122;9.952;2023-06-10T09:48:09;3.97;;;3.57;;
13704;SDS011;6924;52.122;9.952;2023-06-10T09:50:41;3.70;;;2.90;;
13704;SDS011;6924;52.122;9.952;2023-06-10T09:53:08;3.37;;;3.07;;
13704;SDS011;6924;52.122;9.952;2023-06-10T09:55:35;3.03;;;2.73;;
13704;SDS011;6924;52.122;9.952;2023-06-10T09:58:04;3.27;;;3.00;;
13704;SDS011;6924;52.122;9.952;2023-06-10T10:00:31;3.40;;;3.10;;
13704;SDS011;6924;52.122;9.952;2023-06-10T10:02:58;4.00;;;3.70;;
13704;SDS011;6924;52.122;9.952;2023-06-10T10:05:26;3.77;;;3.47;;
13704;SDS011;6924;52.122;9.952;2023-06-10T10:07:54;4.23;;;3.77;;
13704;SDS011;6924;52.122;9.952;2023-06-10T10:10:21;3.47;;;3.17;;
13704;SDS011;6924;52.122;9.952;2023-06-10T10:12:48;4.03;;;3.00;;
13704;SDS011;6924;52.122;9.952;2023-06-10T10:15:20;3.33;;;3.03;;
13704;SDS011;6924;52.122;9.952;2023-06-10T10:17:52;4.50;;;3.17;;
13704;SDS011;6924;52.122;9.952;2023-06-10T10:20:26;11.60;;;3.53;;
13704;SDS011;6924;52.122;9.952;2023-06-10T10:22:56;3.20;;;3.00;;
13704;SDS011;6924;52.122;9.952;2023-06-10T10:25:24;3.63;;;3.33;;
13704;SDS011;6924;52.122;9.952;2023-06-10T10:27:54;3.97;;;3.17;;
13704;SDS011;6924;52.122;9.952;2023-06-10T10:30:25;4.87;;;3.20;;
13704;SDS011;6924;52.122;9.952;2023-06-10T10:32:55;4.80;;;3.23;;
13704;SDS011;6924;52.122;9.952;2023-06-10T10:35:23;5.10;;;3.70;;
13704;SDS011;6924;52.122;9.952;2023-06-10T10:37:53;3.87;;;3.57;;
13704;SDS011;6924;52.122;9.952;2023-06-10T10:40:21;3.53;;;3.13;;
13704;SDS011;6924;52.122;9.952;2023-06-10T10:42:49;4.20;;;3.10;;
13704;SDS011;6924;52.122;9.952;2023-06-10T10:45:16;6.20;;;3.73;;
13704;SDS011;6924;52.122;9.952;2023-06-10T10:47:45;3.17;;;2.97;;
13704;SDS011;6924;52.122;9.952;2023-06-10T10:50:15;3.60;;;3.30;;
13704;SDS011;6924;52.122;9.952;2023-06-10T10:52:56;4.13;;;3.73;;
13704;SDS011;6924;52.122;9.952;2023-06-10T10:55:25;3.23;;;2.93;;
13704;SDS011;6924;52.122;9.952;2023-06-10T10:57:53;3.50;;;3.20;;
13704;SDS011;6924;52.122;9.952;2023-06-10T11:00:24;3.07;;;2.83;;
13704;SDS011;6924;52.122;9.952;2023-06-10T11:02:53;3.90;;;3.60;;
13704;SDS011;6924;52.122;9.952;2023-06-10T11:05:30;4.00;;;3.70;;
13704;SDS011;6924;52.122;9.952;2023-06-10T11:07:59;3.90;;;3.60;;
13704;SDS011;6924;52.122;9.952;2023-06-10T11:10:29;3.80;;;3.40;;
13704;SDS011;6924;52.122;9.952;2023-06-10T11:12:57;3.73;;;3.30;;
13704;SDS011;6924;52.122;9.952;2023-06-10T11:15:24;3.43;;;3.17;;
13704;SDS011;6924;52.122;9.952;2023-06-10T11:18:11;4.10;;;3.70;;
13704;SDS011;6924;52.122;9.952;2023-06-10T11:20:52;4.53;;;3.47;;
13704;SDS011;6924;52.122;9.952;2023-06-10T11:23:30;4.17;;;3.87;;
13704;SDS011;6924;52.122;9.952;2023-06-10T11:26:11;6.73;;;4.47;;
13704;SDS011;6924;52.122;9.952;2023-06-10T11:29:00;4.00;;;3.70;;
13704;SDS011;6924;52.122;9.952;2023-06-10T11:31:29;3.83;;;3.43;;
13704;SDS011;6924;52.122;9.952;2023-06-10T11:33:57;3.73;;;3.50;;
13704;SDS011;6924;52.122;9.952;2023-06-10T11:36:26;4.63;;;3.40;;
13704;SDS011;6924;52.122;9.952;2023-06-10T11:38:55;3.50;;;3.20;;
13704;SDS011;6924;52.122;9.952;2023-06-10T11:41:23;3.57;;;3.37;;
13704;SDS011;6924;52.122;9.952;2023-06-10T11:43:50;3.57;;;3.30;;
13704;SDS011;6924;52.122;9.952;2023-06-10T11:46:18;4.10;;;3.80;;
13704;SDS011;6924;52.122;9.952;2023-06-10T11:48:48;3.93;;;3.63;;
13704;SDS011;6924;52.122;9.952;2023-06-10T11:51:15;3.60;;;3.10;;
13704;SDS011;6924;52.122;9.952;2023-06-10T11:53:43;4.07;;;3.73;;
13704;SDS011;6924;52.122;9.952;2023-06-10T11:56:11;3.83;;;3.53;;
13704;SDS011;6924;52.122;9.952;2023-06-10T11:58:39;3.80;;;3.50;;
13704;SDS011;6924;52.122;9.952;2023-06-10T12:01:11;3.40;;;3.20;;
13704;SDS011;6924;52.122;9.952;2023-06-10T12:03:45;4.20;;;3.90;;
13704;SDS011;6924;52.122;9.952;2023-06-10T12:06:11;3.97;;;3.67;;
13704;SDS011;6924;52.122;9.952;2023-06-10T12:08:40;5.53;;;3.80;;
13704;SDS011;6924;52.122;9.952;2023-06-10T12:11:07;4.00;;;3.70;;
13704;SDS011;6924;52.122;9.952;2023-06-10T12:13:35;3.77;;;3.47;;
13704;SDS011;6924;52.122;9.952;2023-06-10T12:16:08;4.37;;;3.97;;
13704;SDS011;6924;52.122;9.952;2023-06-10T12:18:35;4.13;;;3.83;;
13704;SDS011;6924;52.122;9.952;2023-06-10T12:21:01;4.37;;;4.07;;
13704;SDS011;6924;52.122;9.952;2023-06-10T12:23:29;4.77;;;4.13;;
13704;SDS011;6924;52.122;9.952;2023-06-10T12:25:55;4.27;;;3.87;;
13704;SDS011;6924;52.122;9.952;2023-06-10T12:28:22;3.90;;;3.60;;
13704;SDS011;6924;52.122;9.952;2023-06-10T12:30:50;3.90;;;3.60;;
13704;SDS011;6924;52.122;9.952;2023-06-10T12:33:17;3.83;;;3.43;;
13704;SDS011;6924;52.122;9.952;2023-06-10T12:35:47;3.73;;;3.43;;
13704;SDS011;6924;52.122;9.952;2023-06-10T12:38:14;4.43;;;4.03;;
13704;SDS011;6924;52.122;9.952;2023-06-10T12:40:47;4.23;;;3.93;;
13704;SDS011;6924;52.122;9.952;2023-06-10T12:43:13;4.07;;;3.77;;
13704;SDS011;6924;52.122;9.952;2023-06-10T12:45:45;4.23;;;3.97;;
13704;SDS011;6924;52.122;9.952;2023-06-10T12:48:18;3.70;;;3.40;;
13704;SDS011;6924;52.122;9.952;2023-06-10T12:50:46;4.93;;;4.53;;
13704;SDS011;6924;52.122;9.952;2023-06-10T12:53:16;5.00;;;4.60;;
13704;SDS011;6924;52.122;9.952;2023-06-10T12:55:44;4.23;;;3.83;;
13704;SDS011;6924;52.122;9.952;2023-06-10T12:58:11;4.10;;;3.70;;
13704;SDS011;6924;52.122;9.952;2023-06-10T13:00:38;4.50;;;3.93;;
13704;SDS011;6924;52.122;9.952;2023-06-10T13:03:04;4.37;;;3.97;;
13704;SDS011;6924;52.122;9.952;2023-06-10T13:05:33;4.20;;;3.80;;
13704;SDS011;6924;52.122;9.952;2023-06-10T13:08:00;4.13;;;3.87;;
13704;SDS011;6924;52.122;9.952;2023-06-10T13:10:27;4.07;;;3.63;;
13704;SDS011;6924;52.122;9.952;2023-06-10T13:12:53;4.17;;;3.87;;
13704;SDS011;6924;52.122;9.952;2023-06-10T13:15:20;3.73;;;3.43;;
13704;SDS011;6924;52.122;9.952;2023-06-10T13:17:46;4.10;;;3.80;;
13704;SDS011;6924;52.122;9.952;2023-06-10T13:20:14;4.17;;;3.77;;
13704;SDS011;6924;52.122;9.952;2023-06-10T13:22:42;3.93;;;3.63;;
13704;SDS011;6924;52.122;9.952;2023-06-10T13:25:09;3.60;;;3.30;;
13704;SDS011;6924;52.122;9.952;2023-06-10T13:27:36;3.17;;;2.97;;
13704;SDS011;6924;52.122;9.952;2023-06-10T13:30:04;3.90;;;3.70;;
13704;SDS011;6924;52.122;9.952;2023-06-10T13:32:31;3.47;;;3.27;;
13704;SDS011;6924;52.122;9.952;2023-06-10T13:34:58;3.37;;;3.07;;
13704;SDS011;6924;52.122;9.952;2023-06-10T13:37:24;4.30;;;3.90;;
13704;SDS011;6924;52.122;9.952;2023-06-10T13:39:52;5.93;;;5.33;;
13704;SDS011;6924;52.122;9.952;2023-06-10T13:42:18;4.10;;;3.80;;
13704;SDS011;6924;52.122;9.952;2023-06-10T13:44:45;3.93;;;3.63;;
13704;SDS011;6924;52.122;9.952;2023-06-10T13:47:12;4.33;;;4.03;;
13704;SDS011;6924;52.122;9.952;2023-06-10T13:49:39;4.27;;;3.87;;
13704;SDS011;6924;52.122;9.952;2023-06-10T13:52:06;3.57;;;3.27;;
13704;SDS011;6924;52.122;9.952;2023-06-10T13:54:33;3.63;;;3.37;;
13704;SDS011;6924;52.122;9.952;2023-06-10T13:57:02;3.63;;;3.33;;
13704;SDS011;6924;52.122;9.952;2023-06-10T13:59:29;4.03;;;3.67;;
13704;SDS011;6924;52.122;9.952;2023-06-10T14:01:56;3.47;;;3.27;;
13704;SDS011;6924;52.122;9.952;2023-06-10T14:04:23;4.30;;;4.00;;
13704;SDS011;6924;52.122;9.952;2023-06-10T14:06:49;3.50;;;3.30;;
13704;SDS011;6924;52.122;9.952;2023-06-10T14:09:16;3.67;;;3.47;;
13704;SDS011;6924;52.122;9.952;2023-06-10T14:11:42;3.67;;;3.47;;
13704;SDS011;6924;52.122;9.952;2023-06-10T14:14:10;4.20;;;3.90;;
13704;SDS011;6924;52.122;9.952;2023-06-10T14:16:36;3.57;;;3.37;;
13704;SDS011;6924;52.122;9.952;2023-06-10T14:19:03;4.23;;;3.93;;
13704;SDS011;6924;52.122;9.952;2023-06-10T14:21:29;3.90;;;3.60;;
13704;SDS011;6924;52.122;9.952;2023-06-10T14:23:55;4.37;;;4.07;;
13704;SDS011;6924;52.122;9.952;2023-06-10T14:26:22;3.33;;;3.13;;
13704;SDS011;6924;52.122;9.952;2023-06-10T14:28:48;3.43;;;3.23;;
13704;SDS011;6924;52.122;9.952;2023-06-10T14:31:16;3.60;;;3.30;;
13704;SDS011;6924;52.122;9.952;2023-06-10T14:33:43;3.47;;;3.20;;
13704;SDS011;6924;52.122;9.952;2023-06-10T14:36:09;3.83;;;3.53;;
13704;SDS011;6924;52.122;9.952;2023-06-10T14:38:36;3.50;;;3.20;;
13704;SDS011;6924;52.122;9.952;2023-06-10T14:41:03;3.37;;;3.17;;
13704;SDS011;6924;52.122;9.952;2023-06-10T14:43:29;3.30;;;3.10;;
13704;SDS011;6924;52.122;9.952;2023-06-10T14:45:56;3.70;;;3.40;;
13704;SDS011;6924;52.122;9.952;2023-06-10T14:48:23;3.60;;;3.40;;
13704;SDS011;6924;52.122;9.952;2023-06-10T14:50:50;3.10;;;2.90;;
13704;SDS011;6924;52.122;9.952;2023-06-10T14:53:16;3.60;;;3.30;;
13704;SDS011;6924;52.122;9.952;2023-06-10T14:55:43;3.83;;;3.53;;
13704;SDS011;6924;52.122;9.952;2023-06-10T14:58:09;3.23;;;3.03;;
13704;SDS011;6924;52.122;9.952;2023-06-10T15:00:36;4.03;;;3.73;;